Time;durP1;ratioP1;P1;durP2;ratioP2;P2;SDS_P1;SDS_P2;PMS_P1;PMS_P2;Temp;Humidity;BMP_temperature;BMP_pressure;BME280_temperature;BME280_humidity;BME280_pressure;Samples;Min_cycle;Max_cycle;Signal;HPM_P1;HPM_P2
2022/11/12 00:02:09;;;;;;;;;;;;;;;6.57;nan;102207.78;5046920;28;20056;-85
2022/11/12 00:04:34;;;;;;;8.83;6.27;;;;;;;6.57;nan;102214.81;5053520;28;19924;-85
2022/11/12 00:06:59;;;;;;;;;;;;;;;6.53;nan;102208.88;5056293;28;20294;-85
2022/11/12 00:09:24;;;;;;;;;;;;;;;6.52;nan;102214.22;5056700;28;20298;-87
2022/11/12 00:11:49;;;;;;;;;;;;;;;6.48;nan;102218.78;5055375;28;20293;-85
2022/11/12 00:14:15;;;;;;;10.10;7.00;;;;;;;6.45;nan;102212.84;5045144;28;20011;-86
2022/11/12 00:16:40;;;;;;;7.20;5.73;;;;;;;6.59;nan;102205.06;5046983;28;20400;-86
2022/11/12 00:19:05;;;;;;;;;;;;;;;6.57;nan;102214.81;5071729;28;20127;-86
2022/11/12 00:21:30;;;;;;;;;;;;;;;6.54;nan;102218.47;5051211;28;19916;-87
2022/11/12 00:23:56;;;;;;;9.27;6.50;;;;;;;6.53;nan;102214.16;5055809;28;20022;-86
2022/11/12 00:26:21;;;;;;;8.63;6.57;;;;;;;6.66;nan;102206.44;5051303;28;20392;-86
2022/11/12 00:28:46;;;;;;;8.00;5.87;;;;;;;6.75;nan;102219.06;5049885;28;20449;-85
2022/11/12 00:31:12;;;;;;;22.17;6.80;;;;;;;6.68;nan;102222.13;5054056;28;20036;-88
2022/11/12 00:33:42;;;;;;;8.13;5.82;;;;;;;6.64;nan;102218.81;5070248;28;20035;-87
2022/11/12 00:36:07;;;;;;;;;;;;;;;6.62;nan;102209.31;5053529;28;20033;-86
2022/11/12 00:38:32;;;;;;;10.93;7.47;;;;;;;6.56;nan;102216.59;5049344;28;19969;-86
2022/11/12 00:40:59;;;;;;;12.32;7.60;;;;;;;6.53;nan;102202.75;5047540;28;20128;-86
2022/11/12 00:43:24;;;;;;;9.18;6.80;;;;;;;6.50;nan;102203.78;5059556;28;20036;-85
2022/11/12 00:45:49;;;;;;;10.40;7.22;;;;;;;6.48;nan;102203.00;5049571;28;20036;-85
2022/11/12 00:48:15;;;;;;;9.20;6.25;;;;;;;6.52;nan;102207.19;5062629;28;20565;-86
2022/11/12 00:50:40;;;;;;;7.73;5.10;;;;;;;6.69;nan;102205.41;5050086;28;20441;-85
2022/11/12 00:53:05;;;;;;;8.07;5.40;;;;;;;6.74;nan;102209.47;5061398;28;20409;-85
2022/11/12 00:55:30;;;;;;;7.38;5.45;;;;;;;6.70;nan;102207.97;5067808;28;20033;-88
2022/11/12 00:57:59;;;;;;;7.60;5.38;;;;;;;6.69;nan;102213.28;5049031;28;20202;-86
2022/11/12 01:00:25;;;;;;;6.85;5.20;;;;;;;6.62;nan;102212.78;5052614;28;20055;-86
2022/11/12 01:02:51;;;;;;;9.90;5.85;;;;;;;6.73;nan;102210.41;5065053;28;20391;-86
2022/11/12 01:05:17;;;;;;;6.10;4.90;;;;;;;6.81;nan;102210.81;5050839;28;20438;-86
2022/11/12 01:07:43;;;;;;;6.97;5.05;;;;;;;6.89;nan;102204.28;5042239;28;20951;-86
2022/11/12 01:10:08;;;;;;;;;;;;;;;6.77;nan;102217.19;5048118;28;20049;-86
2022/11/12 01:12:33;;;;;;;;;;;;;;;6.73;nan;102220.09;5047236;28;19922;-86
2022/11/12 01:14:59;;;;;;;;;;;;;;;6.71;nan;102219.31;5044371;28;19917;-86
2022/11/12 01:17:24;;;;;;;8.82;5.68;;;;;;;6.68;nan;102220.34;5047874;28;19967;-86
2022/11/12 01:19:50;;;;;;;8.27;5.90;;;;;;;6.71;nan;102216.69;5049259;28;21106;-86
2022/11/12 01:22:15;;;;;;;5.13;4.10;;;;;;;6.82;nan;102222.19;5060605;28;20412;-86
2022/11/12 01:24:40;;;;;;;8.80;5.63;;;;;;;6.71;nan;102217.53;5045878;28;20033;-86
2022/11/12 01:27:05;;;;;;;7.10;5.60;;;;;;;6.76;nan;102207.59;5048866;28;20469;-86
2022/11/12 01:29:31;;;;;;;7.15;5.22;;;;;;;6.71;nan;102214.91;5052206;28;20033;-86
2022/11/12 01:31:56;;;;;;;6.38;4.88;;;;;;;6.70;nan;102201.88;5048495;28;20037;-86
2022/11/12 01:34:21;;;;;;;8.25;6.00;;;;;;;6.68;nan;102201.09;5041634;28;20045;-86
2022/11/12 01:36:47;;;;;;;10.05;6.85;;;;;;;6.65;nan;102193.34;5047808;28;20043;-86
2022/11/12 01:39:12;;;;;;;12.15;7.88;;;;;;;6.57;nan;102196.41;5051700;28;20035;-86
2022/11/12 01:41:39;;;;;;;11.63;7.80;;;;;;;6.56;nan;102192.94;5051700;28;20024;-86
2022/11/12 01:44:10;;;;;;;10.38;7.32;;;;;;;6.52;nan;102196.66;5052300;28;20036;-87
2022/11/12 01:47:16;;;;;;;9.02;6.25;;;;;;;6.51;nan;102187.09;5048891;28;20544;-86
2022/11/12 01:49:52;;;;;;;10.38;7.22;;;;;;;6.53;nan;102197.50;5058118;28;20525;-86
2022/11/12 01:52:28;;;;;;;9.75;6.97;;;;;;;6.49;nan;102196.00;5049556;28;20506;-86
2022/11/12 01:55:00;;;;;;;12.85;7.85;;;;;;;6.45;nan;102205.81;5050503;28;20056;-86
2022/11/12 01:57:30;;;;;;;11.40;7.38;;;;;;;6.38;nan;102202.66;5045546;28;20040;-87
2022/11/12 02:00:00;;;;;;;12.55;8.25;;;;;;;6.36;nan;102201.06;5069677;28;20040;-86
2022/11/12 02:02:26;;;;;;;11.20;7.53;;;;;;;6.31;nan;102200.47;5047592;28;20044;-86
2022/11/12 02:04:53;;;;;;;9.95;6.88;;;;;;;6.31;nan;102203.09;5052722;28;20036;-86
2022/11/12 02:07:21;;;;;;;8.30;6.15;;;;;;;6.35;nan;102205.47;5049937;28;20041;-86
2022/11/12 02:09:46;;;;;;;10.30;6.65;;;;;;;6.34;nan;102200.28;5051937;28;20405;-86
2022/11/12 02:13:56;;;;;;;10.40;7.70;;;;;;;6.30;nan;102197.00;5071468;28;20037;-87
2022/11/12 02:14:57;;;;;;;9.52;7.00;;;;;;;6.29;nan;102194.44;5070709;28;20047;-86
2022/11/12 02:17:22;;;;;;;10.00;7.50;;;;;;;6.27;nan;102196.28;5053214;28;20036;-86
2022/11/12 02:19:50;;;;;;;11.60;7.88;;;;;;;6.26;nan;102187.56;5050591;28;20363;-87
2022/11/12 02:22:15;;;;;;;9.85;6.97;;;;;;;6.22;nan;102188.69;5052737;28;20036;-86
2022/11/12 02:24:40;;;;;;;10.40;7.78;;;;;;;6.15;nan;102184.69;5050899;28;20028;-86
2022/11/12 02:27:06;;;;;;;11.15;7.15;;;;;;;6.19;nan;102188.00;5065110;28;20033;-86
2022/11/12 02:29:32;;;;;;;10.75;6.40;;;;;;;6.23;nan;102194.78;5042185;28;20041;-86
2022/11/12 02:31:57;;;;;;;10.05;6.88;;;;;;;6.20;nan;102189.69;5048083;28;20040;-86
2022/11/12 02:34:22;;;;;;;11.85;7.40;;;;;;;6.21;nan;102194.88;5053568;28;20052;-86
2022/11/12 02:36:48;;;;;;;10.32;6.75;;;;;;;6.21;nan;102189.59;5057983;28;20037;-86
2022/11/12 02:39:13;;;;;;;11.90;6.50;;;;;;;6.15;nan;102172.41;5053129;28;20059;-86
2022/11/12 02:41:38;;;;;;;8.75;6.40;;;;;;;6.15;nan;102185.53;5063683;28;20675;-86
2022/11/12 02:44:04;;;;;;;11.73;8.07;;;;;;;6.07;nan;102184.25;5072128;28;20135;-86
2022/11/12 02:46:29;;;;;;;11.25;7.63;;;;;;;6.00;nan;102183.72;5050769;28;20049;-86
2022/11/12 02:48:54;;;;;;;12.10;8.27;;;;;;;5.91;nan;102178.91;5052107;28;20040;-86
2022/11/12 02:51:33;;;;;;;9.68;6.90;;;;;;;5.80;nan;102176.03;5050585;28;20041;-87
2022/11/12 02:53:58;;;;;;;9.30;6.28;;;;;;;5.76;nan;102175.31;5054168;28;20390;-86
2022/11/12 02:56:23;;;;;;;12.30;7.45;;;;;;;5.73;nan;102178.97;5053961;28;20162;-86
2022/11/12 02:58:48;;;;;;;9.18;7.18;;;;;;;5.70;nan;102175.66;5055757;28;20036;-86
2022/11/12 03:01:14;;;;;;;9.43;6.90;;;;;;;5.65;nan;102169.78;5047954;28;20067;-86
2022/11/12 03:03:39;;;;;;;10.65;6.82;;;;;;;5.58;nan;102155.28;5072059;28;20525;-85
2022/11/12 03:06:05;;;;;;;9.80;7.40;;;;;;;5.71;nan;102157.19;5053275;28;21173;-86
2022/11/12 03:08:30;;;;;;;8.95;6.18;;;;;;;5.69;nan;102158.19;5057483;28;20100;-86
2022/11/12 03:10:55;;;;;;;11.07;6.65;;;;;;;5.72;nan;102165.91;5057954;28;20043;-86
2022/11/12 03:13:21;;;;;;;12.02;7.10;;;;;;;5.73;nan;102165.84;5053549;28;20029;-86
2022/11/12 03:15:47;;;;;;;8.52;6.28;;;;;;;5.72;nan;102163.28;5064229;28;20063;-86
2022/11/12 03:18:12;;;;;;;8.57;6.63;;;;;;;5.72;nan;102166.78;5055356;28;20039;-87
2022/11/12 03:20:37;;;;;;;8.98;5.82;;;;;;;5.72;nan;102163.28;5054797;28;20119;-86
2022/11/12 03:23:05;;;;;;;9.18;6.65;;;;;;;5.72;nan;102168.53;5053785;28;20074;-85
2022/11/12 03:25:31;;;;;;;7.82;5.93;;;;;;;5.60;nan;102162.16;5044602;28;20045;-86
2022/11/12 03:28:06;;;;;;;;;;;;;;;5.60;nan;102164.78;5051946;28;20032;-86
2022/11/12 03:30:34;;;;;;;8.40;5.90;;;;;;;5.61;nan;102165.63;5048940;28;20374;-86
2022/11/12 03:33:00;;;;;;;8.65;6.00;;;;;;;5.61;nan;102166.47;5069105;28;20037;-85
2022/11/12 03:35:26;;;;;;;8.75;6.50;;;;;;;5.56;nan;102154.53;5061886;28;20040;-86
2022/11/12 03:37:52;;;;;;;7.88;6.03;;;;;;;5.56;nan;102158.00;5059073;28;20040;-86
2022/11/12 03:40:17;;;;;;;7.47;5.63;;;;;;;5.55;nan;102158.91;5051665;28;20518;-85
2022/11/12 03:42:45;;;;;;;7.75;6.00;;;;;;;5.55;nan;102158.91;5052453;28;20039;-86
2022/11/12 03:45:10;;;;;;;8.95;6.13;;;;;;;5.59;nan;102163.06;5042158;28;20082;-86
2022/11/12 03:47:35;;;;;;;7.00;5.03;;;;;;;5.62;nan;102152.41;5053157;28;20037;-85
2022/11/12 03:50:00;;;;;;;8.02;5.93;;;;;;;5.68;nan;102159.97;5053985;28;20033;-85
2022/11/12 03:52:26;;;;;;;8.20;6.00;;;;;;;5.62;nan;102160.28;5055235;28;20040;-86
2022/11/12 03:54:51;;;;;;;;;;;;;;;5.63;nan;102167.25;5057314;28;20749;-86
2022/11/12 03:57:16;;;;;;;6.67;4.73;;;;;;;5.67;nan;102163.56;5053733;28;19917;-86
2022/11/12 03:59:41;;;;;;;6.63;4.82;;;;;;;5.72;nan;102163.28;5062154;28;20067;-86
2022/11/12 04:02:07;;;;;;;6.57;4.97;;;;;;;5.72;nan;102165.91;5047810;28;20494;-85
2022/11/12 04:09:59;;;;;;;8.20;5.40;;;;;;;5.61;nan;102155.97;5063851;28;20062;-86
2022/11/12 04:15:08;;;;;;;7.07;5.10;;;;;;;5.66;nan;102159.22;5060731;28;20076;-85
2022/11/12 04:23:01;;;;;;;12.65;6.40;;;;;;;5.60;nan;102143.81;5070695;28;20042;-86
2022/11/12 04:28:11;;;;;;;6.85;4.97;;;;;;;5.49;nan;102149.59;5067952;28;20034;-85
2022/11/12 04:30:36;;;;;;;5.75;4.70;;;;;;;5.48;nan;102144.41;5038883;28;20045;-85
2022/11/12 04:33:01;;;;;;;5.82;4.60;;;;;;;5.48;nan;102140.03;5068451;28;20037;-86
2022/11/12 04:35:27;;;;;;;7.03;5.18;;;;;;;5.48;nan;102144.41;5052942;28;20488;-85
2022/11/12 04:37:52;;;;;;;7.05;4.93;;;;;;;5.50;nan;102137.31;5070564;28;20032;-86
2022/11/12 04:45:55;;;;;;;7.55;4.60;;;;;;;5.52;nan;102149.41;5069065;28;20137;-85
2022/11/12 04:48:20;;;;;;;;;;;;;;;5.47;nan;102148.81;5047355;28;20048;-86
2022/11/12 04:50:46;;;;;;;;;;;;;;;5.46;nan;102155.00;5073211;28;19920;-86
2022/11/12 04:53:12;;;;;;;8.68;5.13;;;;;;;5.50;nan;102153.06;5054916;28;19959;-86
2022/11/12 04:55:38;;;;;;;7.15;4.90;;;;;;;5.45;nan;102153.28;5050100;28;20075;-86
2022/11/12 04:58:03;;;;;;;7.72;5.28;;;;;;;5.39;nan;102150.16;5051978;28;20033;-86
2022/11/12 05:00:29;;;;;;;7.93;5.20;;;;;;;5.33;nan;102157.38;5042544;28;20517;-86
2022/11/12 05:02:54;;;;;;;6.53;4.75;;;;;;;5.26;nan;102160.41;5052952;28;20114;-86
2022/11/12 05:05:19;;;;;;;7.47;5.43;;;;;;;5.28;nan;102156.78;5068365;28;20036;-86
2022/11/12 05:07:44;;;;;;;7.18;4.93;;;;;;;5.29;nan;102160.22;5054523;28;20047;-85
2022/11/12 05:10:10;;;;;;;6.82;4.80;;;;;;;5.28;nan;102158.56;5044924;28;20598;-85
2022/11/12 05:12:35;;;;;;;6.35;4.80;;;;;;;5.24;nan;102160.50;5062926;28;20085;-85
2022/11/12 05:15:01;;;;;;;8.20;4.93;;;;;;;5.22;nan;102159.72;5051761;28;20041;-85
2022/11/12 05:17:27;;;;;;;7.32;5.25;;;;;;;5.19;nan;102159.84;5045154;28;20122;-85
2022/11/12 05:19:52;;;;;;;7.47;4.80;;;;;;;5.20;nan;102156.31;5068758;28;20032;-85
2022/11/12 05:22:17;;;;;;;5.80;4.72;;;;;;;5.21;nan;102162.41;5054025;28;20104;-84
2022/11/12 05:24:43;;;;;;;7.30;4.80;;;;;;;5.20;nan;102165.97;5062639;28;20045;-85
2022/11/12 05:27:12;;;;;;;6.78;4.82;;;;;;;5.15;nan;102165.31;5051841;28;20037;-85
2022/11/12 05:29:37;;;;;;;5.00;3.80;;;;;;;5.11;nan;102164.66;5053348;28;20063;-85
2022/11/12 05:32:03;;;;;;;7.43;4.47;;;;;;;5.16;nan;102167.88;5070550;28;20028;-85
2022/11/12 05:34:29;;;;;;;5.90;4.50;;;;;;;5.21;nan;102170.28;5044360;28;20037;-85
2022/11/12 05:36:54;;;;;;;5.55;4.38;;;;;;;5.15;nan;102174.06;5071722;28;20044;-85
2022/11/12 05:39:20;;;;;;;5.05;4.07;;;;;;;5.19;nan;102170.34;5060359;28;20037;-86
2022/11/12 05:41:45;;;;;;;4.63;3.50;;;;;;;5.24;nan;102177.97;5069612;28;20059;-85
2022/11/12 05:44:11;;;;;;;4.57;3.67;;;;;;;5.25;nan;102183.16;5072014;28;20536;-85
2022/11/12 05:46:36;;;;;;;;;;;;;;;5.20;nan;102187.78;5071449;28;20047;-85
2022/11/12 05:49:01;;;;;;;4.73;3.80;;;;;;;5.14;nan;102188.09;5071556;28;20385;-85
2022/11/12 05:51:26;;;;;;;5.30;4.37;;;;;;;5.20;nan;102187.78;5071069;28;20403;-84
2022/11/12 05:53:51;;;;;;;4.50;3.70;;;;;;;5.10;nan;102192.66;5073379;28;20105;-84
2022/11/12 05:56:17;;;;;;;5.40;4.18;;;;;;;5.04;nan;102199.94;5050416;28;20076;-85
2022/11/12 05:58:42;;;;;;;4.50;3.70;;;;;;;5.01;nan;102192.25;5071416;28;20054;-85
2022/11/12 06:01:08;;;;;;;4.75;3.95;;;;;;;5.04;nan;102189.47;5054199;28;20094;-85
2022/11/12 06:03:33;;;;;;;6.80;4.22;;;;;;;5.02;nan;102191.31;5069016;28;20059;-85
2022/11/12 06:05:58;;;;;;;4.65;3.75;;;;;;;4.97;nan;102188.06;5049990;28;20090;-85
2022/11/12 06:08:24;;;;;;;5.13;4.00;;;;;;;4.95;nan;102182.03;5071011;28;20043;-85
2022/11/12 06:10:53;;;;;;;4.82;3.38;;;;;;;4.95;nan;102189.91;5055138;28;20094;-85
2022/11/12 06:13:20;;;;;;;5.88;3.70;;;;;;;4.95;nan;102195.16;5075601;28;20036;-85
2022/11/12 06:15:45;;;;;;;6.53;3.80;;;;;;;4.92;nan;102197.94;5074885;28;20078;-85
2022/11/12 06:18:11;;;;;;;3.90;3.13;;;;;;;4.94;nan;102190.84;5057192;28;20025;-85
2022/11/12 06:20:37;;;;;;;4.72;3.55;;;;;;;4.99;nan;102201.94;5058103;28;20036;-85
2022/11/12 06:23:03;;;;;;;5.35;3.20;;;;;;;4.97;nan;102202.03;5058310;28;20040;-85
2022/11/12 06:25:29;;;;;;;4.13;3.22;;;;;;;4.94;nan;102202.19;5055357;28;20037;-85
2022/11/12 06:27:54;;;;;;;2.95;2.65;;;;;;;5.06;nan;102205.97;5056902;28;21073;-85
2022/11/12 06:30:20;;;;;;;5.57;2.88;;;;;;;5.01;nan;102203.56;5061151;28;20124;-84
2022/11/12 06:32:46;;;;;;;4.25;3.00;;;;;;;5.01;nan;102195.72;5057678;28;20104;-85
2022/11/12 06:35:12;;;;;;;5.88;3.78;;;;;;;4.99;nan;102205.41;5058126;28;20094;-85
2022/11/12 06:37:37;;;;;;;6.10;3.70;;;;;;;4.97;nan;102207.25;5058444;28;20036;-86
2022/11/12 06:40:03;;;;;;;4.30;3.13;;;;;;;4.98;nan;102195.88;5058915;28;20059;-85
2022/11/12 06:42:28;;;;;;;4.15;3.00;;;;;;;5.05;nan;102205.13;5058788;28;20521;-85
2022/11/12 06:44:54;;;;;;;4.32;3.10;;;;;;;5.11;nan;102204.81;5055071;28;20685;-85
2022/11/12 06:47:19;;;;;;;4.07;3.00;;;;;;;5.14;nan;102190.69;5047433;28;20117;-85
2022/11/12 06:49:44;;;;;;;5.03;3.65;;;;;;;5.10;nan;102202.25;5077205;28;20055;-85
2022/11/12 06:52:10;;;;;;;4.82;3.53;;;;;;;5.07;nan;102213.75;5057598;28;20501;-86
2022/11/12 06:54:35;;;;;;;4.15;3.15;;;;;;;5.04;nan;102199.94;5064972;28;20096;-86
2022/11/12 06:57:01;;;;;;;3.65;2.80;;;;;;;5.10;nan;102208.38;5050529;28;20088;-85
2022/11/12 06:59:26;;;;;;;4.18;2.85;;;;;;;5.16;nan;102201.97;5056820;28;20390;-85
2022/11/12 07:01:51;;;;;;;4.35;3.50;;;;;;;5.16;nan;102204.59;5048124;28;20409;-85
2022/11/12 07:04:16;;;;;;;;;;;;;;;5.14;nan;102201.19;5044948;28;20045;-85
2022/11/12 07:06:42;;;;;;;5.18;4.03;;;;;;;5.07;nan;102195.41;5048140;28;20011;-85
2022/11/12 07:09:10;;;;;;;8.98;4.50;;;;;;;5.05;nan;102191.16;5056488;28;20040;-85
2022/11/12 07:11:36;;;;;;;6.45;4.45;;;;;;;5.07;nan;102189.31;5055109;28;20039;-85
2022/11/12 07:14:05;;;;;;;6.05;4.40;;;;;;;5.08;nan;102196.25;5051580;28;20029;-85
2022/11/12 07:16:31;;;;;;;7.32;3.78;;;;;;;5.11;nan;102196.09;5055355;28;20107;-84
2022/11/12 07:18:56;;;;;;;5.00;3.90;;;;;;;5.15;nan;102196.78;5056851;28;20055;-85
2022/11/12 07:21:21;;;;;;;14.00;5.05;;;;;;;5.16;nan;102195.88;5055946;28;20040;-84
2022/11/12 07:23:47;;;;;;;5.65;4.30;;;;;;;5.07;nan;102192.78;5052401;28;20033;-84
2022/11/12 07:26:16;;;;;;;6.45;4.65;;;;;;;5.05;nan;102199.88;5043103;28;20059;-85
2022/11/12 07:28:43;;;;;;;6.72;4.95;;;;;;;5.00;nan;102206.25;5043309;28;20033;-85
2022/11/12 07:31:10;;;;;;;6.65;4.13;;;;;;;4.96;nan;102196.84;5045988;28;20045;-85
2022/11/12 07:33:36;;;;;;;4.43;3.40;;;;;;;5.05;nan;102201.63;5051255;28;20088;-85
2022/11/12 07:36:02;;;;;;;6.70;4.13;;;;;;;5.10;nan;102183.91;5072257;28;20056;-85
2022/11/12 07:38:29;;;;;;;5.53;4.32;;;;;;;5.14;nan;102192.47;5052821;28;20044;-85
2022/11/12 07:41:00;;;;;;;7.10;4.18;;;;;;;5.10;nan;102186.53;5070328;28;20044;-84
2022/11/12 07:43:26;;;;;;;4.45;3.83;;;;;;;5.09;nan;102190.09;5034696;28;20033;-85
2022/11/12 07:45:51;;;;;;;6.80;4.70;;;;;;;5.16;nan;102188.84;5051084;28;20436;-85
2022/11/12 07:48:17;;;;;;;8.48;6.13;;;;;;;5.16;nan;102195.88;5053587;28;20129;-84
2022/11/12 07:50:42;;;;;;;7.13;5.20;;;;;;;5.18;nan;102192.25;5051507;28;20463;-85
2022/11/12 07:53:07;;;;;;;6.00;4.60;;;;;;;5.19;nan;102193.09;5068577;28;20549;-85
2022/11/12 07:55:32;;;;;;;6.40;4.85;;;;;;;5.18;nan;102189.63;5072036;28;20036;-85
2022/11/12 07:57:58;;;;;;;7.30;4.78;;;;;;;5.20;nan;102189.56;5062433;28;20040;-85
2022/11/12 08:00:24;;;;;;;5.68;4.32;;;;;;;5.18;nan;102194.88;5052323;28;20426;-84
2022/11/12 08:02:49;;;;;;;5.55;4.35;;;;;;;5.24;nan;102189.34;5070942;28;20036;-85
2022/11/12 08:05:14;;;;;;;8.05;5.93;;;;;;;5.25;nan;102192.81;5071435;28;20048;-85
2022/11/12 08:07:40;;;;;;;9.30;5.90;;;;;;;5.21;nan;102192.09;5054010;28;20117;-85
2022/11/12 08:10:06;;;;;;;6.15;4.45;;;;;;;5.21;nan;102197.34;5071728;28;20032;-85
2022/11/12 08:12:31;;;;;;;8.52;5.25;;;;;;;5.23;nan;102192.88;5053479;28;20040;-85
2022/11/12 08:14:56;;;;;;;6.57;5.20;;;;;;;5.23;nan;102189.41;5040362;28;20041;-85
2022/11/12 08:17:22;;;;;;;5.15;4.10;;;;;;;5.28;nan;102201.34;5049649;28;20033;-84
2022/11/12 08:19:47;;;;;;;4.90;3.40;;;;;;;5.43;nan;102191.03;5051001;28;20060;-84
2022/11/12 08:22:12;;;;;;;6.13;4.18;;;;;;;5.50;nan;102197.66;5053007;28;20040;-84
2022/11/12 08:24:37;;;;;;;13.27;5.70;;;;;;;5.45;nan;102202.28;5066881;28;20410;-84
2022/11/12 08:27:03;;;;;;;6.80;3.80;;;;;;;5.46;nan;102206.63;5051338;28;20052;-84
2022/11/12 08:29:28;;;;;;;4.38;3.60;;;;;;;5.56;nan;102202.59;5058773;28;20037;-84
2022/11/12 08:31:53;;;;;;;5.95;3.80;;;;;;;5.61;nan;102203.22;5049455;28;20042;-85
2022/11/12 08:34:18;;;;;;;4.85;4.15;;;;;;;5.72;nan;102213.16;5052394;28;20098;-84
2022/11/12 08:36:44;;;;;;;5.22;4.00;;;;;;;5.84;nan;102209.91;5052268;28;20063;-85
2022/11/12 08:39:09;;;;;;;6.93;4.47;;;;;;;5.87;nan;102209.75;5052653;28;20526;-84
2022/11/12 08:41:34;;;;;;;6.45;4.15;;;;;;;5.89;nan;102207.91;5052138;28;20036;-84
2022/11/12 08:44:00;;;;;;;8.18;4.45;;;;;;;5.92;nan;102206.88;5051324;28;20052;-84
2022/11/12 08:46:25;;;;;;;6.20;3.90;;;;;;;5.87;nan;102215.00;5066366;28;20057;-85
2022/11/12 08:48:50;;;;;;;5.40;4.22;;;;;;;5.78;nan;102217.25;5046462;28;20652;-84
2022/11/12 08:51:15;;;;;;;5.63;4.03;;;;;;;5.74;nan;102214.78;5052143;28;20039;-84
2022/11/12 08:53:41;;;;;;;6.25;4.05;;;;;;;5.78;nan;102217.25;5062059;28;20032;-85
2022/11/12 08:56:06;;;;;;;5.82;3.90;;;;;;;5.79;nan;102225.03;5050195;28;20033;-86
2022/11/12 08:58:31;;;;;;;9.63;4.45;;;;;;;5.76;nan;102217.31;5069766;28;20029;-85
2022/11/12 09:01:03;;;;;;;7.50;4.55;;;;;;;5.72;nan;102221.91;5047946;28;20033;-84
2022/11/12 09:03:28;;;;;;;12.63;5.22;;;;;;;5.76;nan;102222.56;5039505;28;20393;-84
2022/11/12 09:05:54;;;;;;;7.22;4.63;;;;;;;5.74;nan;102213.91;5051092;28;20044;-84
2022/11/12 09:08:22;;;;;;;6.20;4.25;;;;;;;5.85;nan;102218.63;5068573;28;20464;-85
2022/11/12 09:10:48;;;;;;;12.30;4.30;;;;;;;5.89;nan;102222.81;5051597;28;20586;-84
2022/11/12 09:13:14;;;;;;;5.60;3.55;;;;;;;5.95;nan;102209.38;5046751;28;20029;-84
2022/11/12 09:15:39;;;;;;;4.88;3.65;;;;;;;6.01;nan;102213.47;5052266;28;20093;-84
2022/11/12 09:18:10;;;;;;;22.00;5.20;;;;;;;5.96;nan;102208.47;5054374;28;20050;-84
2022/11/12 09:20:35;;;;;;;;;;;;;;;5.84;nan;102209.03;5043491;28;20112;-84
2022/11/12 09:23:03;;;;;;;15.40;4.97;;;;;;;5.86;nan;102201.94;5060939;28;20365;-84
2022/11/12 09:25:29;;;;;;;7.80;4.90;;;;;;;5.88;nan;102211.44;5046128;28;20627;-84
2022/11/12 09:27:54;;;;;;;7.72;5.30;;;;;;;5.94;nan;102207.69;5052344;28;20036;-85
2022/11/12 09:30:20;;;;;;;10.18;4.82;;;;;;;6.11;nan;102210.25;5065932;28;20583;-84
2022/11/12 09:32:45;;;;;;;8.15;5.28;;;;;;;6.25;nan;102216.56;5065547;28;20102;-84
2022/11/12 09:35:11;;;;;;;6.20;4.72;;;;;;;6.33;nan;102217.00;5044804;28;20131;-85
2022/11/12 09:37:37;;;;;;;6.43;4.55;;;;;;;6.47;nan;102206.59;5051599;28;20605;-85
2022/11/12 09:40:04;;;;;;;6.20;4.30;;;;;;;6.52;nan;102212.44;5047481;28;20041;-85
2022/11/12 09:42:29;;;;;;;11.70;4.75;;;;;;;6.57;nan;102214.81;5052406;28;20056;-85
2022/11/12 09:44:57;;;;;;;;;;;;;;;6.59;nan;102205.91;5051272;28;20052;-84
2022/11/12 09:47:35;;;;;;;10.48;4.05;;;;;;;6.66;nan;102206.44;5043665;28;20372;-84
2022/11/12 09:50:45;;;;;;;5.90;4.10;;;;;;;6.72;nan;102208.72;5043904;28;20083;-84
2022/11/12 09:53:21;;;;;;;11.75;4.78;;;;;;;6.70;nan;102205.34;4980814;28;20125;-84
2022/11/12 09:55:47;;;;;;;;;;;;;;;6.66;nan;102200.31;4992556;28;20034;-85
2022/11/12 09:58:14;;;;;;;;;;;;;;;6.62;nan;102202.25;5028505;28;19913;-85
2022/11/12 10:00:59;;;;;;;;;;;;;;;6.59;nan;102202.44;5057128;28;19961;-84
2022/11/12 10:03:33;;;;;;;7.72;4.35;;;;;;;6.62;nan;102206.69;5078293;28;20018;-85
2022/11/12 10:06:21;;;;;;;7.88;3.92;;;;;;;6.61;nan;102205.84;5081241;28;20119;-86
2022/11/12 10:09:11;;;;;;;7.38;4.05;;;;;;;6.54;nan;102199.22;5063899;28;20039;-86
2022/11/12 10:16:41;;;;;;;10.85;4.82;;;;;;;6.68;nan;102190.56;5069661;28;20040;-85
2022/11/12 10:18:07;;;;;;;4.93;3.75;;;;;;;6.85;nan;102192.25;5072218;28;20086;-86
2022/11/12 10:20:47;;;;;;;7.22;3.95;;;;;;;6.96;nan;102198.59;5055631;28;20037;-86
2022/11/12 10:23:42;;;;;;;5.53;3.97;;;;;;;6.95;nan;102191.63;5056981;28;20098;-86
2022/11/12 10:26:14;;;;;;;6.60;4.30;;;;;;;6.95;nan;102193.41;5055603;28;20417;-85
2022/11/12 10:28:47;;;;;;;4.60;3.80;;;;;;;7.01;nan;102178.16;5058704;28;20048;-85
2022/11/12 10:31:18;;;;;;;5.25;4.13;;;;;;;7.05;nan;102170.91;5057071;28;20051;-85
2022/11/12 10:33:44;;;;;;;4.85;3.50;;;;;;;7.12;nan;102171.41;5067014;28;20270;-85
2022/11/12 10:36:15;;;;;;;5.25;3.70;;;;;;;7.21;nan;102170.88;5056064;28;20051;-85
2022/11/12 10:38:43;;;;;;;5.00;3.63;;;;;;;7.38;nan;102170.72;5053180;28;20395;-86
2022/11/12 10:41:23;;;;;;;6.25;4.20;;;;;;;7.28;nan;102169.59;5053863;28;20039;-85
2022/11/12 10:43:52;;;;;;;;;;;;;;;7.21;nan;102169.09;5040596;28;20120;-85
2022/11/12 10:46:19;;;;;;;;;;;;;;;7.16;nan;102176.41;5068002;28;19924;-87
2022/11/12 10:48:54;;;;;;;6.07;4.40;;;;;;;7.14;nan;102167.75;5067585;28;20214;-86
2022/11/12 10:51:25;;;;;;;5.18;3.53;;;;;;;7.31;nan;102168.56;5038589;28;20502;-85
2022/11/12 10:53:51;;;;;;;5.07;3.92;;;;;;;7.44;nan;102162.47;5055174;28;20522;-86
2022/11/12 10:56:30;;;;;;;5.10;3.65;;;;;;;7.59;nan;102165.13;5055390;28;20063;-85
2022/11/12 10:59:08;;;;;;;5.40;3.90;;;;;;;7.62;nan;102172.84;5057991;28;20033;-84
2022/11/12 11:01:33;;;;;;;7.53;4.65;;;;;;;7.52;nan;102167.28;5056017;28;20051;-86
2022/11/12 11:03:59;;;;;;;;;;;;;;;7.45;nan;102176.47;5063332;28;20048;-86
2022/11/12 11:06:25;;;;;;;6.10;4.40;;;;;;;7.36;nan;102172.59;5059714;28;19916;-84
2022/11/12 11:09:15;;;;;;;5.10;3.92;;;;;;;7.41;nan;102167.94;5053820;28;20037;-85
2022/11/12 11:11:52;;;;;;;5.82;4.70;;;;;;;7.40;nan;102168.84;5056201;28;20098;-85
2022/11/12 11:14:21;;;;;;;;;;;;;;;7.39;nan;102161.06;5073412;28;20040;-85
2022/11/12 11:16:56;;;;;;;5.90;4.68;;;;;;;7.38;nan;102160.19;5055484;28;20404;-85
2022/11/12 11:19:32;;;;;;;6.60;5.32;;;;;;;7.36;nan;102162.06;5074197;28;20043;-85
2022/11/12 11:22:18;;;;;;;;;;;;;;;7.38;nan;102154.94;5070492;28;20101;-86
2022/11/12 11:24:58;;;;;;;6.30;4.20;;;;;;;7.52;nan;102156.75;5069496;28;20321;-86
2022/11/12 11:27:23;;;;;;;;;;;;;;;7.48;nan;102154.41;5055186;28;20462;-84
2022/11/12 11:29:54;;;;;;;;;;;;;;;7.56;nan;102153.00;5070810;28;19981;-85
2022/11/12 11:32:42;;;;;;;6.18;4.28;;;;;;;7.74;nan;102158.94;5050051;28;19916;-85
2022/11/12 11:35:25;;;;;;;6.15;4.43;;;;;;;7.79;nan;102158.66;5056510;28;20077;-84
2022/11/12 11:38:09;;;;;;;;;;;;;;;7.87;nan;102151.16;5065121;28;20372;-85
2022/11/12 11:40:42;;;;;;;6.63;5.25;;;;;;;7.87;nan;102154.63;5067146;28;19916;-85
2022/11/12 11:43:17;;;;;;;6.68;5.22;;;;;;;7.91;nan;102152.63;5068572;28;20032;-85
2022/11/12 11:46:05;;;;;;;7.68;5.72;;;;;;;7.91;nan;102151.78;5049504;28;20040;-85
2022/11/12 11:48:43;;;;;;;7.25;5.25;;;;;;;8.01;nan;102148.50;5047090;28;20586;-85
2022/11/12 11:51:24;;;;;;;;;;;;;;;7.98;nan;102151.31;5069391;28;20086;-85
2022/11/12 11:53:54;;;;;;;;;;;;;;;7.82;nan;102148.78;5060104;28;19939;-85
2022/11/12 11:56:29;;;;;;;8.25;6.07;;;;;;;7.86;nan;102145.03;5066585;28;19927;-85
2022/11/12 11:59:00;;;;;;;;;;;;;;;7.79;nan;102138.44;5071888;28;20044;-84
2022/11/12 12:01:56;;;;;;;;;;;;;;;7.78;nan;102133.28;5052942;28;19916;-85
2022/11/12 12:04:45;;;;;;;8.02;5.40;;;;;;;7.79;nan;102138.44;5051189;28;20356;-85
2022/11/12 12:07:19;;;;;;;8.02;5.65;;;;;;;7.79;nan;102135.78;5069336;28;20036;-85
2022/11/12 12:10:12;;;;;;;8.63;6.20;;;;;;;7.85;nan;102131.97;5060801;28;20048;-85
2022/11/12 12:12:37;;;;;;;;;;;;;;;7.83;nan;102137.31;5043519;28;20032;-85
2022/11/12 12:15:21;;;;;;;;;;;;;;;7.86;nan;102131.00;5050337;28;19923;-85
2022/11/12 12:17:59;;;;;;;;;;;;;;;7.75;nan;102123.78;5040326;28;20362;-85
2022/11/12 12:20:40;;;;;;;8.43;6.15;;;;;;;7.77;nan;102121.91;5040929;28;19916;-85
2022/11/12 12:23:19;;;;;;;10.52;6.50;;;;;;;7.74;nan;102116.81;5044439;28;20041;-84
2022/11/12 12:25:48;;;;;;;9.75;6.90;;;;;;;7.67;nan;102110.22;5050159;28;20113;-85
2022/11/12 12:28:24;;;;;;;9.02;7.05;;;;;;;7.55;nan;102111.81;5043884;28;20498;-85
2022/11/12 12:30:54;;;;;;;10.45;7.45;;;;;;;7.44;nan;102109.84;5045153;28;20387;-85